Terminal Aerodrome Forecast
Issued by NWS

Home | Current Version | Previous Version | Text Only | Print | Product List | Glossary On
Versions: 1 2 3 4 5 6 7 8 9 10 11 12 13 14
000
FTUS45 KTFX 301845 AAA
TAFGTF
TAF AMD
KGTF 301845Z 3019/0118 30015G30KT P6SM SCT090
     FM010200 34010KT P6SM SKC
     FM010600 09006KT P6SM SKC
     FM011500 23008KT P6SM SKC=

USA.gov is the U.S. government's official web portal to all federal, state and local government web resources and services.